Time;durP1;ratioP1;P1;durP2;ratioP2;P2;SDS_P1;SDS_P2;PMS_P1;PMS_P2;Temp;Humidity;BMP_temperature;BMP_pressure;BME280_temperature;BME280_humidity;BME280_pressure;Samples;Min_cycle;Max_cycle;Signal;HPM_P1;HPM_P2
2023/01/24 00:00:00;;;;;;;;;;;;;;;;;;5040204;28;19924;-88
2023/01/24 00:02:26;;;;;;;;;;;;;;;;;;5024862;28;20414;-89
2023/01/24 00:04:52;;;;;;;;;;;;;;;;;;5023479;28;19956;-89
2023/01/24 00:07:18;;;;;;;;;;;;;;;;;;5023794;28;19916;-90
2023/01/24 00:09:50;;;;;;;;;;;;;;;;;;5025148;28;19925;-87
2023/01/24 00:12:22;;;;;;;;;;;;;;;;;;5013520;28;19924;-88
2023/01/24 00:14:48;;;;;;;;;;;;;;;;;;5025143;28;19920;-87
2023/01/24 00:17:21;;;;;;;;;;;;;;;;;;5021891;28;19943;-88
2023/01/24 00:19:47;;;;;;;;;;;;;;;;;;5028547;28;19924;-88
2023/01/24 00:22:13;;;;;;;;;;;;;;;;;;5036418;28;20366;-87
2023/01/24 00:24:39;;;;;;;;;;;;;;;;;;5018264;28;21437;-88
2023/01/24 00:27:05;;;;;;;;;;;;;;;;;;5021941;28;20272;-88
2023/01/24 00:29:31;;;;;;;;;;;;;;;;;;5018806;28;19924;-87
2023/01/24 00:32:00;;;;;;;;;;;;;;;;;;5022026;28;19917;-87
2023/01/24 00:34:26;;;;;;;;;;;;;;;;;;5059036;28;19929;-88
2023/01/24 00:37:00;;;;;;;;;;;;;;;;;;5040802;28;19977;-88
2023/01/24 00:39:32;;;;;;;;;;;;;;;;;;5044975;28;19995;-87
2023/01/24 00:41:58;;;;;;;;;;;;;;;;;;5031009;28;20062;-88
2023/01/24 00:44:27;;;;;;;;;;;;;;;;;;5043673;28;19990;-87
2023/01/24 00:46:52;;;;;;;;;;;;;;;;;;5062221;28;19955;-88
2023/01/24 00:49:19;;;;;;;;;;;;;;;;;;5051668;28;20011;-87
2023/01/24 00:51:53;;;;;;;;;;;;;;;;;;5033092;28;20359;-88
2023/01/24 00:54:19;;;;;;;;;;;;;;;;;;5027769;28;19924;-88
2023/01/24 00:56:48;;;;;;;;;;;;;;;;;;5033639;28;19970;-89
2023/01/24 00:59:26;;;;;;;;;;;;;;;;;;5028053;28;20379;-88
2023/01/24 01:02:03;;;;;;;;;;;;;;;;;;5025040;28;20205;-88
2023/01/24 01:04:39;;;;;;;;;;;;;;;;;;5021952;28;19931;-87
2023/01/24 01:07:06;;;;;;;;;;;;;;;;;;5038510;28;19920;-88
2023/01/24 01:09:43;;;;;;;;;;;;;;;;;;5032190;28;19920;-88
2023/01/24 01:12:17;;;;;;;;;;;;;;;;;;5029644;28;19965;-88
2023/01/24 01:14:46;;;;;;;;;;;;;;;;;;5043333;28;19971;-87
2023/01/24 01:17:14;;;;;;;;;;;;;;;;;;5028019;28;19994;-87
2023/01/24 01:19:40;;;;;;;;;;;;;;;;;;5025390;28;19926;-86
2023/01/24 01:22:09;;;;;;;;;;;;;;;;;;5048670;28;19917;-88
2023/01/24 01:24:38;;;;;;;;;;;;;;;;;;5029484;28;19927;-88
2023/01/24 01:27:04;;;;;;;;;;;;;;;;;;5046798;28;20292;-88
2023/01/24 01:29:33;;;;;;;;;;;;;;;;;;5031416;28;19924;-88
2023/01/24 01:32:02;;;;;;;;;;;;;;;;;;5049391;28;19923;-88
2023/01/24 01:34:35;;;;;;;;;;;;;;;;;;5027684;28;19928;-88
2023/01/24 01:37:04;;;;;;;;;;;;;;;;;;5039417;28;20379;-88
2023/01/24 01:39:33;;;;;;;;;;;;;;;;;;5031494;28;19943;-87
2023/01/24 01:42:02;;;;;;;;;;;;;;;;;;5048564;28;19928;-87
2023/01/24 01:44:47;;;;;;;;;;;;;;;;;;5043353;28;19924;-88
2023/01/24 01:47:25;;;;;;;;;;;;;;;;;;5030029;28;19924;-88
2023/01/24 01:49:54;;;;;;;;;;;;;;;;;;5024395;28;19916;-87
2023/01/24 01:52:30;;;;;;;;;;;;;;;;;;5040472;28;19917;-89
2023/01/24 01:54:56;;;;;;;;;;;;;;;;;;5023395;28;19964;-88
2023/01/24 01:57:25;;;;;;;;;;;;;;;;;;5029200;28;20342;-88
2023/01/24 01:59:51;;;;;;;;;;;;;;;;;;5025369;28;19969;-87
2023/01/24 02:02:17;;;;;;;;;;;;;;;;;;5041789;28;19920;-88
2023/01/24 02:07:47;;;;;;;;;;;;;;;;;;5017749;28;19920;-88
2023/01/24 02:10:22;;;;;;;;;;;;;;;;;;5040926;28;19917;-89
2023/01/24 02:18:33;;;;;;;;;;;;;;;;;;5040765;28;20013;-88
2023/01/24 02:21:15;;;;;;;;;;;;;;;;;;;;;
2023/01/24 02:23:42;;;;;;;;;;;;;;;;;;5044073;28;20275;-88
2023/01/24 02:26:08;;;;;;;;;;;;;;;;;;5026790;28;19951;-87
2023/01/24 02:28:37;;;;;;;;;;;;;;;;;;5039457;28;19916;-88
2023/01/24 02:31:03;;;;;;;;;;;;;;;;;;5042363;28;19924;-88
2023/01/24 02:33:29;;;;;;;;;;;;;;;;;;5015908;28;19916;-88
2023/01/24 02:36:00;;;;;;;;;;;;;;;;;;5025768;28;19920;-87
2023/01/24 02:38:26;;;;;;;;;;;;;;;;;;5024963;28;19916;-86
2023/01/24 02:40:52;;;;;;;;;;;;;;;;;;5025121;28;19928;-88
2023/01/24 02:43:21;;;;;;;;;;;;;;;;;;5041441;28;19943;-88
2023/01/24 02:45:49;;;;;;;;;;;;;;;;;;5040483;28;19925;-88
2023/01/24 02:48:15;;;;;;;;;;;;;;;;;;5027242;28;19925;-88
2023/01/24 02:53:30;;;;;;;;;;;;;;;;;;5003961;28;19917;-86
2023/01/24 02:58:45;;;;;;;;;;;;;;;;;;5046035;28;19916;-88
2023/01/24 03:01:23;;;;;;;;;;;;;;;;;;5019630;28;20154;-87
2023/01/24 03:03:52;;;;;;;;;;;;;;;;;;5026110;28;19974;-87
2023/01/24 03:06:21;;;;;;;;;;;;;;;;;;5026365;28;20430;-88
2023/01/24 03:08:47;;;;;;;;;;;;;;;;;;5042798;28;19943;-86
2023/01/24 03:11:31;;;;;;;;;;;;;;;;;;5029111;28;19964;-89
2023/01/24 03:36:01;;;;;;;;;;;;;;;;;;5052582;28;19921;-88
2023/01/24 03:41:15;;;;;;;;;;;;;;;;;;5041047;28;20378;-88
2023/01/24 03:43:50;;;;;;;;;;;;;;;;;;5042596;28;20031;-88
2023/01/24 03:46:16;;;;;;;;;;;;;;;;;;5020504;28;19928;-88
2023/01/24 03:48:42;;;;;;;;;;;;;;;;;;5039359;28;19920;-88
2023/01/24 03:53:53;;;;;;;;;;;;;;;;;;5043006;28;20026;-87
2023/01/24 03:56:22;;;;;;;;;;;;;;;;;;5041025;28;19916;-90
2023/01/24 04:04:04;;;;;;;;;;;;;;;;;;5038766;28;20302;-89
2023/01/24 04:07:07;;;;;;;;;;;;;;;;;;;;;
2023/01/24 04:09:42;;;;;;;;;;;;;;;;;;5040941;28;20284;-88
2023/01/24 04:12:08;;;;;;;;;;;;;;;;;;5043693;28;20194;-88
2023/01/24 04:14:43;;;;;;;;;;;;;;;;;;5010300;28;20405;-86
2023/01/24 04:17:12;;;;;;;;;;;;;;;;;;5038888;28;19920;-87
2023/01/24 04:19:44;;;;;;;;;;;;;;;;;;5022042;28;19923;-88
2023/01/24 04:22:10;;;;;;;;;;;;;;;;;;5020859;28;20305;-88
2023/01/24 04:24:41;;;;;;;;;;;;;;;;;;5044202;28;20026;-90
2023/01/24 04:27:07;;;;;;;;;;;;;;;;;;5021402;28;20153;-88
2023/01/24 04:29:40;;;;;;;;;;;;;;;;;;5041482;28;19916;-90
2023/01/24 04:32:06;;;;;;;;;;;;;;;;;;5041570;28;19974;-87
2023/01/24 04:34:32;;;;;;;;;;;;;;;;;;5030318;28;19924;-89
2023/01/24 04:37:07;;;;;;;;;;;;;;;;;;5038206;28;19920;-90
2023/01/24 04:39:33;;;;;;;;;;;;;;;;;;5032345;28;19946;-89
2023/01/24 04:41:59;;;;;;;;;;;;;;;;;;5049782;28;19923;-87
2023/01/24 04:44:34;;;;;;;;;;;;;;;;;;5031025;28;19923;-88
2023/01/24 04:47:00;;;;;;;;;;;;;;;;;;5043929;28;19920;-89
2023/01/24 04:49:32;;;;;;;;;;;;;;;;;;5028120;28;20069;-91
2023/01/24 04:52:19;;;;;;;;;;;;;;;;;;5021772;28;20260;-89
2023/01/24 04:54:51;;;;;;;;;;;;;;;;;;5043613;28;20038;-90
2023/01/24 04:57:20;;;;;;;;;;;;;;;;;;5024380;28;19931;-88
2023/01/24 04:59:52;;;;;;;;;;;;;;;;;;5023049;28;19925;-89
2023/01/24 05:02:23;;;;;;;;;;;;;;;;;;5019351;28;19916;-88
2023/01/24 05:04:58;;;;;;;;;;;;;;;;;;5041264;28;19924;-88
2023/01/24 05:07:24;;;;;;;;;;;;;;;;;;5029540;28;19926;-88
2023/01/24 05:09:56;;;;;;;;;;;;;;;;;;5042170;28;20006;-88
2023/01/24 05:12:22;;;;;;;;;;;;;;;;;;5020195;28;19973;-88
2023/01/24 05:14:48;;;;;;;;;;;;;;;;;;5042736;22;19946;-81
2023/01/24 05:17:14;;;;;;;;;;;;;;;;;;5022193;28;19943;-81
2023/01/24 05:19:40;;;;;;;;;;;;;;;;;;5051951;28;19917;-80
2023/01/24 05:22:06;;;;;;;;;;;;;;;;;;5032400;28;19916;-81
2023/01/24 05:24:32;;;;;;;;;;;;;;;;;;5033821;28;19968;-81
2023/01/24 05:26:58;;;;;;;;;;;;;;;;;;5024692;28;19919;-83
2023/01/24 05:29:24;;;;;;;;;;;;;;;;;;5026130;28;19924;-84
2023/01/24 05:31:50;;;;;;;;;;;;;;;;;;5032997;28;19920;-83
2023/01/24 05:34:15;;;;;;;;;;;;;;;;;;5037876;28;19916;-84
2023/01/24 05:36:42;;;;;;;;;;;;;;;;;;5037466;28;20383;-82
2023/01/24 05:39:07;;;;;;;;;;;;;;;;;;5020881;28;19927;-83
2023/01/24 05:41:33;;;;;;;;;;;;;;;;;;5036514;28;19921;-84
2023/01/24 05:44:00;;;;;;;;;;;;;;;;;;5030961;28;19924;-83
2023/01/24 05:46:26;;;;;;;;;;;;;;;;;;5011223;28;20310;-83
2023/01/24 05:48:51;;;;;;;;;;;;;;;;;;5015698;28;19920;-82
2023/01/24 05:51:18;;;;;;;;;;;;;;;;;;5007354;28;19924;-83
2023/01/24 05:53:43;;;;;;;;;;;;;;;;;;5012606;28;19928;-82
2023/01/24 05:56:10;;;;;;;;;;;;;;;;;;5028212;28;19924;-81
2023/01/24 05:58:35;;;;;;;;;;;;;;;;;;5028480;28;19923;-82
2023/01/24 06:01:01;;;;;;;;;;;;;;;;;;5022482;28;19924;-82
2023/01/24 06:03:27;;;;;;;;;;;;;;;;;;5012694;28;19962;-81
2023/01/24 06:05:53;;;;;;;;;;;;;;;;;;5039212;28;19981;-81
2023/01/24 06:08:19;;;;;;;;;;;;;;;;;;5049255;28;20374;-82
2023/01/24 06:10:45;;;;;;;;;;;;;;;;;;5021689;28;19946;-83
2023/01/24 06:13:11;;;;;;;;;;;;;;;;;;5008933;28;19924;-83
2023/01/24 06:15:37;;;;;;;;;;;;;;;;;;5026678;28;20450;-82
2023/01/24 06:18:03;;;;;;;;;;;;;;;;;;5044663;28;19993;-83
2023/01/24 06:20:29;;;;;;;;;;;;;;;;;;5027222;28;20267;-84
2023/01/24 06:22:54;;;;;;;;;;;;;;;;;;5048983;28;19951;-83
2023/01/24 06:25:20;;;;;;;;;;;;;;;;;;5048304;28;19917;-81
2023/01/24 06:27:46;;;;;;;;;;;;;;;;;;5024122;28;19924;-83
2023/01/24 06:30:12;;;;;;;;;;;;;;;;;;5030749;28;19936;-84
2023/01/24 06:32:38;;;;;;;;;;;;;;;;;;5035729;28;19916;-83
2023/01/24 06:35:06;;;;;;;;;;;;;;;;;;5031562;28;20057;-83
2023/01/24 06:37:32;;;;;;;;;;;;;;;;;;5018618;28;19930;-82
2023/01/24 06:39:58;;;;;;;;;;;;;;;;;;5034770;28;20140;-81
2023/01/24 06:42:24;;;;;;;;;;;;;;;;;;5033168;28;19994;-81
2023/01/24 06:44:50;;;;;;;;;;;;;;;;;;5021311;28;19920;-83
2023/01/24 06:47:16;;;;;;;;;;;;;;;;;;5017218;28;20432;-83
2023/01/24 06:49:42;;;;;;;;;;;;;;;;;;5023047;28;19973;-84
2023/01/24 06:52:07;;;;;;;;;;;;;;;;;;5041140;28;19920;-83
2023/01/24 06:54:33;;;;;;;;;;;;;;;;;;5014402;28;19942;-82
2023/01/24 06:56:59;;;;;;;;;;;;;;;;;;5017741;28;19924;-83
2023/01/24 06:59:25;;;;;;;;;;;;;;;;;;5023553;28;19916;-83
2023/01/24 07:01:51;;;;;;;;;;;;;;;;;;5037238;28;19921;-82
2023/01/24 07:04:17;;;;;;;;;;;;;;;;;;5020727;28;19916;-83
2023/01/24 07:06:43;;;;;;;;;;;;;;;;;;5046872;28;19940;-83
2023/01/24 07:09:09;;;;;;;;;;;;;;;;;;5049564;28;19931;-83
2023/01/24 07:11:35;;;;;;;;;;;;;;;;;;5061860;28;20513;-83
2023/01/24 07:14:01;;;;;;;;;;;;;;;;;;5035439;28;19967;-83
2023/01/24 07:16:27;;;;;;;;;;;;;;;;;;5023665;28;20314;-83
2023/01/24 07:18:53;;;;;;;;;;;;;;;;;;5024174;28;20390;-83
2023/01/24 07:21:18;;;;;;;;;;;;;;;;;;5040251;28;19924;-83
2023/01/24 07:23:44;;;;;;;;;;;;;;;;;;5062791;28;19924;-82
2023/01/24 07:26:11;;;;;;;;;;;;;;;;;;5039719;28;19924;-83
2023/01/24 07:28:37;;;;;;;;;;;;;;;;;;5041526;28;20123;-83
2023/01/24 07:31:02;;;;;;;;;;;;;;;;;;5023848;28;20255;-83
2023/01/24 07:33:28;;;;;;;;;;;;;;;;;;5025501;28;20340;-83
2023/01/24 07:35:54;;;;;;;;;;;;;;;;;;5045335;28;19928;-84
2023/01/24 07:38:20;;;;;;;;;;;;;;;;;;5049160;28;19920;-84
2023/01/24 07:40:49;;;;;;;;;;;;;;;;;;5044021;28;20273;-84
2023/01/24 07:43:15;;;;;;;;;;;;;;;;;;5024289;28;19925;-83
2023/01/24 07:45:41;;;;;;;;;;;;;;;;;;5020433;28;19931;-83
2023/01/24 07:48:07;;;;;;;;;;;;;;;;;;5019725;28;19921;-83
2023/01/24 07:50:33;;;;;;;;;;;;;;;;;;5020739;28;19920;-83
2023/01/24 07:52:59;;;;;;;;;;;;;;;;;;5037423;28;20334;-83
2023/01/24 07:55:25;;;;;;;;;;;;;;;;;;5054730;28;19974;-82
2023/01/24 07:57:51;;;;;;;;;;;;;;;;;;5051860;28;19924;-82
2023/01/24 08:00:17;;;;;;;;;;;;;;;;;;5049271;28;20022;-83
2023/01/24 08:02:43;;;;;;;;;;;;;;;;;;5010684;28;20356;-82
2023/01/24 08:05:09;;;;;;;;;;;;;;;;;;5030710;28;20442;-83
2023/01/24 08:07:35;;;;;;;;;;;;;;;;;;5054539;28;20358;-83
2023/01/24 08:10:00;;;;;;;;;;;;;;;;;;5043767;28;20375;-83
2023/01/24 08:12:26;;;;;;;;;;;;;;;;;;5050440;28;19989;-83
2023/01/24 08:14:52;;;;;;;;;;;;;;;;;;5023358;28;19931;-82
2023/01/24 08:17:18;;;;;;;;;;;;;;;;;;5016901;28;20042;-84
2023/01/24 08:19:44;;;;;;;;;;;;;;;;;;5024374;28;20298;-82
2023/01/24 08:22:10;;;;;;;;;;;;;;;;;;5037566;28;20325;-82
2023/01/24 08:24:36;;;;;;;;;;;;;;;;;;5052770;28;20333;-82
2023/01/24 08:27:02;;;;;;;;;;;;;;;;;;5041312;28;19924;-84
2023/01/24 08:29:28;;;;;;;;;;;;;;;;;;5061347;28;19924;-81
2023/01/24 08:31:54;;;;;;;;;;;;;;;;;;5016438;28;19924;-84
2023/01/24 08:34:20;;;;;;;;;;;;;;;;;;5016512;28;19956;-83
2023/01/24 08:36:46;;;;;;;;;;;;;;;;;;5038731;28;20406;-82
2023/01/24 08:39:12;;;;;;;;;;;;;;;;;;5034231;28;19924;-83
2023/01/24 08:41:38;;;;;;;;;;;;;;;;;;5055769;28;19974;-83
2023/01/24 08:44:03;;;;;;;;;;;;;;;;;;5044033;28;20380;-83
2023/01/24 08:46:29;;;;;;;;;;;;;;;;;;5038888;28;19920;-83
2023/01/24 08:48:55;;;;;;;;;;;;;;;;;;5052973;28;19916;-81
2023/01/24 08:51:21;;;;;;;;;;;;;;;;;;5036658;28;19931;-83
2023/01/24 08:53:49;;;;;;;;;;;;;;;;;;5054249;28;19917;-83
2023/01/24 08:56:15;;;;;;;;;;;;;;;;;;5025550;28;19935;-83
2023/01/24 08:58:41;;;;;;;;;;;;;;;;;;5058261;28;19920;-83
2023/01/24 09:01:07;;;;;;;;;;;;;;;;;;5044636;28;19928;-82
2023/01/24 09:03:33;;;;;;;;;;;;;;;;;;5061293;28;19920;-82
2023/01/24 09:05:59;;;;;;;;;;;;;;;;;;5045932;28;19928;-82
2023/01/24 09:08:25;;;;;;;;;;;;;;;;;;5033626;28;19985;-83
2023/01/24 09:10:51;;;;;;;;;;;;;;;;;;5044443;28;20026;-83
2023/01/24 09:13:17;;;;;;;;;;;;;;;;;;5044198;28;19916;-83
2023/01/24 09:15:43;;;;;;;;;;;;;;;;;;5029931;28;19920;-83
2023/01/24 09:18:09;;;;;;;;;;;;;;;;;;5054319;28;19924;-83
2023/01/24 09:20:35;;;;;;;;;;;;;;;;;;5034198;28;20364;-83
2023/01/24 09:23:01;;;;;;;;;;;;;;;;;;5046260;28;19971;-83
2023/01/24 09:25:30;;;;;;;;;;;;;;;;;;5046897;28;19920;-83
2023/01/24 09:27:56;;;;;;;;;;;;;;;;;;5066203;28;19925;-82
2023/01/24 09:30:22;;;;;;;;;;;;;;;;;;5047137;28;19930;-83
2023/01/24 09:32:48;;;;;;;;;;;;;;;;;;5060851;28;19956;-83
2023/01/24 09:35:14;;;;;;;;;;;;;;;;;;5048372;28;20126;-82
2023/01/24 09:37:42;;;;;;;;;;;;;;;;;;5057966;28;19982;-82
2023/01/24 09:40:08;;;;;;;;;;;;;;;;;;5025870;28;19923;-83
2023/01/24 09:42:34;;;;;;;;;;;;;;;;;;5023019;28;19920;-83
2023/01/24 09:45:00;;;;;;;;;;;;;;;;;;5027807;28;20310;-82
2023/01/24 09:47:26;;;;;;;;;;;;;;;;;;5040220;28;20340;-83
2023/01/24 09:49:51;;;;;;;;;;;;;;;;;;5067123;28;19974;-84
2023/01/24 09:52:17;;;;;;;;;;;;;;;;;;5074148;28;19915;-83
2023/01/24 09:54:43;;;;;;;;;;;;;;;;;;5026112;28;19917;-83
2023/01/24 09:57:09;;;;;;;;;;;;;;;;;;5048218;28;20014;-81
2023/01/24 09:59:35;;;;;;;;;;;;;;;;;;5053456;28;19916;-82
2023/01/24 10:02:02;;;;;;;;;;;;;;;;;;5032526;28;19920;-83
2023/01/24 10:04:28;;;;;;;;;;;;;;;;;;5049631;28;19916;-83
2023/01/24 10:06:54;;;;;;;;;;;;;;;;;;5060214;28;19931;-83
2023/01/24 10:09:20;;;;;;;;;;;;;;;;;;5054012;28;19976;-83
2023/01/24 10:11:46;;;;;;;;;;;;;;;;;;5056936;28;19920;-83
2023/01/24 10:14:12;;;;;;;;;;;;;;;;;;5062731;28;19971;-84
2023/01/24 10:16:38;;;;;;;;;;;;;;;;;;5054270;28;19946;-83
2023/01/24 10:19:04;;;;;;;;;;;;;;;;;;5075993;28;20464;-82
2023/01/24 10:21:30;;;;;;;;;;;;;;;;;;5066733;28;20410;-83
2023/01/24 10:23:56;;;;;;;;;;;;;;;;;;5054137;28;19923;-83
2023/01/24 10:26:22;;;;;;;;;;;;;;;;;;5075040;28;19916;-82
2023/01/24 10:28:48;;;;;;;;;;;;;;;;;;5032377;28;19920;-83
2023/01/24 10:31:14;;;;;;;;;;;;;;;;;;5051103;28;20007;-83
2023/01/24 10:33:40;;;;;;;;;;;;;;;;;;5048214;28;20407;-83
2023/01/24 10:36:06;;;;;;;;;;;;;;;;;;5040888;28;19924;-82
2023/01/24 10:38:32;;;;;;;;;;;;;;;;;;5064783;28;19920;-82
2023/01/24 10:40:58;;;;;;;;;;;;;;;;;;5051666;28;19943;-83
2023/01/24 10:43:24;;;;;;;;;;;;;;;;;;5045826;28;19924;-83
2023/01/24 10:45:50;;;;;;;;;;;;;;;;;;5024119;28;19943;-83
2023/01/24 10:48:16;;;;;;;;;;;;;;;;;;5049524;28;19923;-81
2023/01/24 10:50:42;;;;;;;;;;;;;;;;;;5062241;28;19995;-83
2023/01/24 10:53:08;;;;;;;;;;;;;;;;;;5028229;28;20559;-83
2023/01/24 10:55:36;;;;;;;;;;;;;;;;;;5046927;28;19970;-83
2023/01/24 10:58:01;;;;;;;;;;;;;;;;;;5063131;28;19936;-83
2023/01/24 11:00:29;;;;;;;;;;;;;;;;;;5044693;28;19923;-83
2023/01/24 11:02:55;;;;;;;;;;;;;;;;;;5028057;28;19924;-83
2023/01/24 11:05:20;;;;;;;;;;;;;;;;;;5024381;28;19962;-82
2023/01/24 11:07:46;;;;;;;;;;;;;;;;;;5024610;28;20347;-83
2023/01/24 11:10:14;;;;;;;;;;;;;;;;;;5053068;28;19916;-83
2023/01/24 11:12:40;;;;;;;;;;;;;;;;;;5039773;28;20512;-83
2023/01/24 11:15:06;;;;;;;;;;;;;;;;;;5060442;22;19928;-85
2023/01/24 11:17:41;;;;;;;;;;;;;;;;;;5064156;28;19928;-89
2023/01/24 11:20:07;;;;;;;;;;;;;;;;;;5060477;28;19916;-90
2023/01/24 11:22:45;;;;;;;;;;;;;;;;;;5066768;28;19930;-88
2023/01/24 11:25:20;;;;;;;;;;;;;;;;;;5050062;28;19920;-89
2023/01/24 11:27:52;;;;;;;;;;;;;;;;;;5033143;28;19999;-88
2023/01/24 11:30:33;;;;;;;;;;;;;;;;;;5043966;28;19916;-88
2023/01/24 11:32:59;;;;;;;;;;;;;;;;;;5056739;28;19916;-87
2023/01/24 11:35:41;;;;;;;;;;;;;;;;;;;;;
2023/01/24 11:38:13;;;;;;;;;;;;;;;;;;5050248;28;19920;-88
2023/01/24 11:43:40;;;;;;;;;;;;;;;;;;5027284;28;20015;-86
2023/01/24 11:46:22;;;;;;;;;;;;;;;;;;;;;
2023/01/24 11:48:51;;;;;;;;;;;;;;;;;;5053715;28;19920;-88
2023/01/24 11:51:17;;;;;;;;;;;;;;;;;;5039875;28;20217;-87
2023/01/24 11:53:46;;;;;;;;;;;;;;;;;;5032374;28;19985;-87
2023/01/24 11:56:12;;;;;;;;;;;;;;;;;;5041057;28;19928;-86
2023/01/24 11:58:50;;;;;;;;;;;;;;;;;;5046703;28;19962;-87
2023/01/24 12:01:16;;;;;;;;;;;;;;;;;;5056882;28;19920;-87
2023/01/24 12:03:48;;;;;;;;;;;;;;;;;;5036003;28;19920;-86
2023/01/24 12:06:20;;;;;;;;;;;;;;;;;;5052272;28;19916;-88
2023/01/24 12:09:00;;;;;;;;;;;;;;;;;;;;;
2023/01/24 12:11:34;;;;;;;;;;;;;;;;;;5050409;28;19934;-86
2023/01/24 12:14:00;;;;;;;;;;;;;;;;;;5052500;28;19916;-89
2023/01/24 12:16:32;;;;;;;;;;;;;;;;;;5052248;28;19932;-85
2023/01/24 12:19:04;;;;;;;;;;;;;;;;;;5045353;28;19924;-86
2023/01/24 12:21:30;;;;;;;;;;;;;;;;;;5034734;28;19930;-85
2023/01/24 12:23:56;;;;;;;;;;;;;;;;;;5056815;28;19917;-85
2023/01/24 12:26:24;;;;;;;;;;;;;;;;;;5052275;28;19973;-84
2023/01/24 12:31:49;;;;;;;;;;;;;;;;;;5040498;28;20010;-84
2023/01/24 12:34:18;;;;;;;;;;;;;;;;;;5043109;28;20330;-87
2023/01/24 12:36:46;;;;;;;;;;;;;;;;;;5069358;28;19923;-87
2023/01/24 12:39:23;;;;;;;;;;;;;;;;;;;;;
2023/01/24 12:41:52;;;;;;;;;;;;;;;;;;5044676;28;20007;-87
2023/01/24 12:44:18;;;;;;;;;;;;;;;;;;5053546;28;19916;-87
2023/01/24 12:46:47;;;;;;;;;;;;;;;;;;5028168;28;19923;-87
2023/01/24 12:49:25;;;;;;;;;;;;;;;;;;5066427;28;20277;-89
2023/01/24 12:51:59;;;;;;;;;;;;;;;;;;5042576;28;20015;-87
2023/01/24 12:54:30;;;;;;;;;;;;;;;;;;5053558;28;19965;-88
2023/01/24 12:56:59;;;;;;;;;;;;;;;;;;5049729;28;20279;-88
2023/01/24 12:59:42;;;;;;;;;;;;;;;;;;5053188;28;20354;-87
2023/01/24 13:02:23;;;;;;;;;;;;;;;;;;5024144;28;19967;-87
2023/01/24 13:05:02;;;;;;;;;;;;;;;;;;;;;
2023/01/24 13:07:46;;;;;;;;;;;;;;;;;;5001936;28;19997;-86
2023/01/24 13:10:38;;;;;;;;;;;;;;;;;;4968734;28;19964;-86
2023/01/24 13:13:20;;;;;;;;;;;;;;;;;;5032526;28;19921;-87
2023/01/24 13:15:57;;;;;;;;;;;;;;;;;;5016156;28;19968;-88
2023/01/24 13:18:37;;;;;;;;;;;;;;;;;;5020390;28;19929;-87
2023/01/24 13:21:16;;;;;;;;;;;;;;;;;;5069311;23;19928;-82
2023/01/24 13:23:42;;;;;;;;;;;;;;;;;;5037239;28;19923;-83
2023/01/24 13:26:08;;;;;;;;;;;;;;;;;;5033006;28;19972;-81
2023/01/24 13:28:34;;;;;;;;;;;;;;;;;;5065923;28;19950;-82
2023/01/24 13:31:00;;;;;;;;;;;;;;;;;;5036206;28;19920;-81
2023/01/24 13:33:26;;;;;;;;;;;;;;;;;;5038216;28;19925;-81
2023/01/24 13:35:52;;;;;;;;;;;;;;;;;;5029422;28;19920;-81
2023/01/24 13:38:18;;;;;;;;;;;;;;;;;;5022012;28;20430;-81
2023/01/24 13:40:44;;;;;;;;;;;;;;;;;;5027814;28;19922;-80
2023/01/24 13:43:09;;;;;;;;;;;;;;;;;;5015620;28;20406;-81
2023/01/24 13:45:36;;;;;;;;;;;;;;;;;;5032904;28;19916;-81
2023/01/24 13:48:04;;;;;;;;;;;;;;;;;;5030057;28;19925;-81
2023/01/24 13:50:30;;;;;;;;;;;;;;;;;;5024260;28;19928;-80
2023/01/24 13:52:55;;;;;;;;;;;;;;;;;;5031220;28;19916;-81
2023/01/24 13:55:29;;;;;;;;;;;;;;;;;;5035866;28;19937;-82
2023/01/24 13:57:55;;;;;;;;;;;;;;;;;;5022471;28;19943;-81
2023/01/24 14:00:21;;;;;;;;;;;;;;;;;;5051625;28;19925;-81
2023/01/24 14:02:47;;;;;;;;;;;;;;;;;;5035391;28;20003;-81
2023/01/24 14:05:13;;;;;;;;;;;;;;;;;;5027729;28;20000;-82
2023/01/24 14:07:39;;;;;;;;;;;;;;;;;;5028631;28;20011;-81
2023/01/24 14:10:05;;;;;;;;;;;;;;;;;;5031987;28;20351;-81
2023/01/24 14:12:31;;;;;;;;;;;;;;;;;;5025307;28;19920;-81
2023/01/24 14:14:57;;;;;;;;;;;;;;;;;;5025115;28;19948;-82
2023/01/24 14:17:23;;;;;;;;;;;;;;;;;;5008808;28;19982;-81
2023/01/24 14:19:49;;;;;;;;;;;;;;;;;;5051674;28;20348;-81
2023/01/24 14:22:15;;;;;;;;;;;;;;;;;;5050561;28;19921;-81
2023/01/24 14:24:41;;;;;;;;;;;;;;;;;;5034951;28;20003;-82
2023/01/24 14:27:07;;;;;;;;;;;;;;;;;;5022307;28;20449;-81
2023/01/24 14:29:33;;;;;;;;;;;;;;;;;;4999782;28;19920;-81
2023/01/24 14:32:01;;;;;;;;;;;;;;;;;;5010306;28;19943;-81
2023/01/24 14:34:27;;;;;;;;;;;;;;;;;;5044661;28;19964;-82
2023/01/24 14:36:53;;;;;;;;;;;;;;;;;;5023999;28;19961;-82
2023/01/24 14:39:20;;;;;;;;;;;;;;;;;;5016619;28;19924;-82
2023/01/24 14:41:46;;;;;;;;;;;;;;;;;;5014932;28;20052;-81
2023/01/24 14:44:12;;;;;;;;;;;;;;;;;;5012944;28;20011;-80
2023/01/24 14:46:38;;;;;;;;;;;;;;;;;;5046947;28;19924;-82
2023/01/24 14:49:06;;;;;;;;;;;;;;;;;;5039538;28;19916;-82
2023/01/24 14:51:32;;;;;;;;;;;;;;;;;;5023254;28;19917;-82
2023/01/24 14:53:58;;;;;;;;;;;;;;;;;;5022885;28;19921;-82
2023/01/24 14:56:24;;;;;;;;;;;;;;;;;;5000067;28;19971;-82
2023/01/24 14:58:50;;;;;;;;;;;;;;;;;;5032771;28;20240;-82
2023/01/24 15:01:16;;;;;;;;;;;;;;;;;;5026151;28;19943;-82
2023/01/24 15:03:42;;;;;;;;;;;;;;;;;;5026834;28;19917;-81
2023/01/24 15:06:08;;;;;;;;;;;;;;;;;;5044026;28;19920;-82
2023/01/24 15:08:34;;;;;;;;;;;;;;;;;;5020730;28;19963;-82
2023/01/24 15:11:00;;;;;;;;;;;;;;;;;;5018818;28;19920;-82
2023/01/24 15:13:26;;;;;;;;;;;;;;;;;;5024209;28;19920;-82
2023/01/24 15:15:52;;;;;;;;;;;;;;;;;;5007054;28;19920;-82
2023/01/24 15:18:18;;;;;;;;;;;;;;;;;;5044734;28;19927;-82
2023/01/24 15:20:44;;;;;;;;;;;;;;;;;;5011849;28;19921;-82
2023/01/24 15:23:10;;;;;;;;;;;;;;;;;;5016787;28;20010;-82
2023/01/24 15:25:36;;;;;;;;;;;;;;;;;;5052625;28;20007;-81
2023/01/24 15:28:02;;;;;;;;;;;;;;;;;;5009618;28;19960;-82
2023/01/24 15:30:27;;;;;;;;;;;;;;;;;;5045210;28;20412;-82
2023/01/24 15:32:53;;;;;;;;;;;;;;;;;;5034936;28;20314;-82
2023/01/24 15:35:21;;;;;;;;;;;;;;;;;;5016932;28;19954;-81
2023/01/24 15:37:47;;;;;;;;;;;;;;;;;;5047323;28;20394;-83
2023/01/24 15:40:13;;;;;;;;;;;;;;;;;;5045563;28;19967;-81
2023/01/24 15:45:23;;;;;;;;;;;;;;;;;;5019487;28;19920;-82
2023/01/24 15:47:52;;;;;;;;;;;;;;;;;;5040417;28;19927;-82
2023/01/24 15:53:03;;;;;;;;;;;;;;;;;;5032221;28;19931;-82
2023/01/24 15:55:29;;;;;;;;;;;;;;;;;;5015000;28;20295;-81
2023/01/24 15:57:55;;;;;;;;;;;;;;;;;;5033746;28;23216;-82
2023/01/24 16:00:21;;;;;;;;;;;;;;;;;;5013884;28;19952;-82
2023/01/24 16:02:46;;;;;;;;;;;;;;;;;;5030131;28;19925;-82
2023/01/24 16:05:12;;;;;;;;;;;;;;;;;;5018431;28;21649;-80
2023/01/24 16:07:38;;;;;;;;;;;;;;;;;;5038678;28;19921;-82
2023/01/24 16:10:04;;;;;;;;;;;;;;;;;;5001825;28;19921;-82
2023/01/24 16:12:30;;;;;;;;;;;;;;;;;;5007243;28;19958;-83
2023/01/24 16:14:56;;;;;;;;;;;;;;;;;;5006615;28;20472;-81
2023/01/24 16:17:25;;;;;;;;;;;;;;;;;;5043104;28;20401;-80
2023/01/24 16:19:51;;;;;;;;;;;;;;;;;;5022241;28;20425;-80
2023/01/24 16:22:17;;;;;;;;;;;;;;;;;;5033857;28;19928;-82
2023/01/24 16:24:43;;;;;;;;;;;;;;;;;;5002917;28;19987;-81
2023/01/24 16:27:08;;;;;;;;;;;;;;;;;;5006707;28;19925;-82
2023/01/24 16:29:34;;;;;;;;;;;;;;;;;;5023555;28;19967;-82
2023/01/24 16:32:00;;;;;;;;;;;;;;;;;;5044684;28;19924;-81
2023/01/24 16:34:26;;;;;;;;;;;;;;;;;;4997417;28;19928;-81
2023/01/24 16:36:52;;;;;;;;;;;;;;;;;;5022787;28;19917;-81
2023/01/24 16:39:18;;;;;;;;;;;;;;;;;;5039674;28;19936;-80
2023/01/24 16:41:44;;;;;;;;;;;;;;;;;;5005249;28;19917;-82
2023/01/24 16:44:10;;;;;;;;;;;;;;;;;;5024205;28;20314;-81
2023/01/24 16:46:36;;;;;;;;;;;;;;;;;;5020231;28;19925;-82
2023/01/24 16:49:02;;;;;;;;;;;;;;;;;;5039212;28;20261;-82
2023/01/24 16:51:28;;;;;;;;;;;;;;;;;;5011813;28;19956;-80
2023/01/24 16:53:55;;;;;;;;;;;;;;;;;;5020619;28;20019;-82
2023/01/24 16:56:21;;;;;;;;;;;;;;;;;;4997952;28;19962;-80
2023/01/24 16:58:47;;;;;;;;;;;;;;;;;;5009397;28;19923;-82
2023/01/24 17:01:13;;;;;;;;;;;;;;;;;;5022549;28;20264;-82
2023/01/24 17:03:39;;;;;;;;;;;;;;;;;;5029511;28;20439;-82
2023/01/24 17:06:05;;;;;;;;;;;;;;;;;;5026528;28;20002;-82
2023/01/24 17:08:31;;;;;;;;;;;;;;;;;;5021686;28;20062;-82
2023/01/24 17:10:57;;;;;;;;;;;;;;;;;;5014305;28;20007;-81
2023/01/24 17:13:23;;;;;;;;;;;;;;;;;;5029120;28;19917;-81
2023/01/24 17:15:49;;;;;;;;;;;;;;;;;;5033055;28;19929;-80
2023/01/24 17:18:14;;;;;;;;;;;;;;;;;;4999530;28;20628;-82
2023/01/24 17:20:40;;;;;;;;;;;;;;;;;;5023285;28;19962;-82
2023/01/24 17:23:06;;;;;;;;;;;;;;;;;;5040071;28;19917;-83
2023/01/24 17:25:32;;;;;;;;;;;;;;;;;;5020643;28;19925;-81
2023/01/24 17:27:58;;;;;;;;;;;;;;;;;;5028526;28;19927;-82
2023/01/24 17:30:24;;;;;;;;;;;;;;;;;;5038929;28;20596;-82
2023/01/24 17:32:50;;;;;;;;;;;;;;;;;;5002109;28;19920;-82
2023/01/24 17:35:16;;;;;;;;;;;;;;;;;;5031756;28;20416;-81
2023/01/24 17:37:42;;;;;;;;;;;;;;;;;;5004543;28;19932;-82
2023/01/24 17:40:08;;;;;;;;;;;;;;;;;;5036062;28;19921;-82
2023/01/24 17:42:34;;;;;;;;;;;;;;;;;;5052883;28;19916;-81
2023/01/24 17:45:00;;;;;;;;;;;;;;;;;;5033480;28;20358;-82
2023/01/24 17:47:26;;;;;;;;;;;;;;;;;;5032098;28;19920;-82
2023/01/24 17:49:52;;;;;;;;;;;;;;;;;;5011766;28;20406;-83
2023/01/24 17:52:18;;;;;;;;;;;;;;;;;;5046187;28;19979;-82